createdAt,value
2019-03-12T00:00:06.590Z,12.53
2019-03-12T00:02:34.135Z,11.20
2019-03-12T00:05:01.771Z,12.27
2019-03-12T00:07:29.345Z,11.20
2019-03-12T00:09:57.055Z,11.97
2019-03-12T00:12:24.592Z,11.57
2019-03-12T00:14:52.185Z,12.33
2019-03-12T00:17:19.782Z,19.93
2019-03-12T00:19:47.685Z,11.57
2019-03-12T00:22:15.265Z,10.60
2019-03-12T00:24:42.877Z,13.80
2019-03-12T00:27:10.494Z,14.23
2019-03-12T00:29:38.123Z,14.17
2019-03-12T00:32:05.724Z,15.17
2019-03-12T00:34:33.334Z,11.77
2019-03-12T00:37:00.921Z,14.27
2019-03-12T00:39:28.587Z,15.17
2019-03-12T00:41:56.204Z,14.27
2019-03-12T00:44:23.840Z,14.30
2019-03-12T00:46:51.455Z,13.83
2019-03-12T00:49:19.044Z,8.10
2019-03-12T00:51:46.667Z,11.47
2019-03-12T00:54:14.294Z,13.23
2019-03-12T00:56:41.859Z,18.27
2019-03-12T00:59:09.496Z,15.80
2019-03-12T01:01:37.071Z,13.37
2019-03-12T01:04:04.691Z,17.93
2019-03-12T01:06:32.306Z,19.77
2019-03-12T01:08:59.950Z,13.63
2019-03-12T01:11:27.573Z,17.70
2019-03-12T01:13:55.243Z,16.33
2019-03-12T01:16:22.820Z,21.23
2019-03-12T01:18:50.471Z,15.57
2019-03-12T01:21:18.081Z,15.60
2019-03-12T01:23:45.767Z,16.70
2019-03-12T01:26:13.336Z,13.87
2019-03-12T01:28:40.951Z,16.47
2019-03-12T01:31:08.549Z,12.87
2019-03-12T01:33:36.146Z,12.77
2019-03-12T01:36:03.806Z,17.87
2019-03-12T01:38:31.385Z,14.70
2019-03-12T01:40:59.009Z,11.23
2019-03-12T01:43:26.683Z,15.47
2019-03-12T01:45:54.358Z,15.77
2019-03-12T01:48:21.944Z,13.93
2019-03-12T01:50:49.557Z,14.43
2019-03-12T01:53:17.163Z,12.67
2019-03-12T01:55:44.837Z,16.90
2019-03-12T01:58:14.628Z,13.80
2019-03-12T02:00:42.016Z,16.13
2019-03-12T02:03:09.595Z,19.87
2019-03-12T02:05:44.567Z,14.30
2019-03-12T02:08:12.171Z,14.70
2019-03-12T02:10:39.786Z,15.63
2019-03-12T02:13:07.496Z,17.07
2019-03-12T02:15:35.162Z,14.97
2019-03-12T02:18:02.743Z,17.27
2019-03-12T02:20:30.354Z,16.93
2019-03-12T02:22:57.949Z,12.83
2019-03-12T02:25:26.073Z,12.90
2019-03-12T02:27:53.624Z,12.70
2019-03-12T02:30:21.970Z,16.60
2019-03-12T02:32:49.595Z,18.20
2019-03-12T02:35:17.224Z,14.77
2019-03-12T02:37:44.794Z,13.27
2019-03-12T02:40:12.633Z,12.93
2019-03-12T02:42:40.222Z,16.73
2019-03-12T02:45:07.888Z,14.93
2019-03-12T02:47:35.452Z,11.57
2019-03-12T02:50:03.082Z,15.70
2019-03-12T02:52:30.681Z,17.97
2019-03-12T02:54:58.307Z,20.37
2019-03-12T02:57:25.902Z,19.07
2019-03-12T02:59:53.519Z,16.30
2019-03-12T03:02:21.111Z,15.70
2019-03-12T03:04:49.071Z,14.17
2019-03-12T03:07:36.210Z,20.33
2019-03-12T03:10:04.562Z,15.23
2019-03-12T03:12:32.178Z,14.10
2019-03-12T03:15:07.419Z,17.77
2019-03-12T03:17:35.057Z,13.07
2019-03-12T03:20:02.771Z,9.67
2019-03-12T03:22:30.364Z,16.60
2019-03-12T03:24:58.070Z,13.60
2019-03-12T03:27:29.113Z,14.47
2019-03-12T03:29:55.068Z,13.77
2019-03-12T03:32:22.666Z,13.87
2019-03-12T03:34:50.284Z,13.03
2019-03-12T03:37:17.907Z,14.37
2019-03-12T03:39:45.555Z,15.67
2019-03-12T03:42:13.207Z,10.77
2019-03-12T03:44:40.834Z,12.07
2019-03-12T03:47:08.439Z,13.47
2019-03-12T03:49:36.030Z,17.37
2019-03-12T03:52:03.664Z,11.13
2019-03-12T03:54:31.322Z,12.93
2019-03-12T03:56:58.980Z,14.47
2019-03-12T03:59:26.573Z,11.30
2019-03-12T04:01:54.220Z,12.87
2019-03-12T04:04:21.823Z,12.37
2019-03-12T04:06:49.467Z,10.47
2019-03-12T04:09:17.072Z,10.77
2019-03-12T04:11:44.680Z,15.77
2019-03-12T04:14:12.269Z,14.07
2019-03-12T04:16:39.896Z,12.67
2019-03-12T04:19:07.454Z,13.20
2019-03-12T04:21:35.104Z,10.63
2019-03-12T04:24:02.702Z,10.03
2019-03-12T04:26:30.310Z,12.30
2019-03-12T04:28:57.898Z,9.43
2019-03-12T04:31:25.566Z,13.63
2019-03-12T04:34:16.586Z,14.03
2019-03-12T04:36:44.525Z,13.83
2019-03-12T04:39:12.156Z,8.47
2019-03-12T04:41:39.739Z,12.50
2019-03-12T04:44:07.357Z,11.73
2019-03-12T04:46:35.017Z,12.63
2019-03-12T04:49:02.623Z,13.47
2019-03-12T04:51:30.238Z,9.60
2019-03-12T04:53:57.853Z,13.57
2019-03-12T04:56:25.499Z,11.13
2019-03-12T04:58:53.082Z,10.87
2019-03-12T05:01:20.691Z,14.03
2019-03-12T05:03:48.268Z,10.70
2019-03-12T05:06:15.897Z,13.03
2019-03-12T05:08:43.480Z,12.47
2019-03-12T05:11:11.095Z,12.83
2019-03-12T05:13:38.732Z,13.60
2019-03-12T05:16:06.342Z,13.40
2019-03-12T05:18:33.994Z,11.50
2019-03-12T05:21:03.947Z,12.17
2019-03-12T05:23:32.951Z,10.80
2019-03-12T05:26:00.549Z,16.60
2019-03-12T05:28:28.134Z,14.07
2019-03-12T05:30:55.785Z,14.83
2019-03-12T05:33:23.377Z,13.83
2019-03-12T05:35:51.008Z,8.60
2019-03-12T05:38:18.589Z,10.13
2019-03-12T05:40:47.639Z,16.80
2019-03-12T05:43:15.270Z,13.67
2019-03-12T05:45:42.894Z,11.80
2019-03-12T05:48:10.548Z,13.53
2019-03-12T05:50:38.177Z,14.10
2019-03-12T05:53:10.947Z,18.07
2019-03-12T05:55:38.582Z,10.30
2019-03-12T05:58:06.244Z,16.37
2019-03-12T06:00:33.826Z,12.53
2019-03-12T06:03:01.468Z,13.77
2019-03-12T06:05:29.144Z,13.13
2019-03-12T06:07:56.807Z,15.83
2019-03-12T06:10:24.403Z,13.77
2019-03-12T06:12:54.322Z,10.80
2019-03-12T06:15:21.943Z,13.13
2019-03-12T06:17:49.595Z,12.80
2019-03-12T06:20:17.290Z,15.47
2019-03-12T06:22:44.941Z,9.20
2019-03-12T06:25:13.146Z,13.50
2019-03-12T06:27:40.783Z,10.60
2019-03-12T06:30:09.632Z,12.63
2019-03-12T06:32:56.339Z,15.37
2019-03-12T06:35:43.520Z,15.77
2019-03-12T06:38:42.906Z,18.37
2019-03-12T06:41:36.056Z,12.97
2019-03-12T06:44:15.703Z,13.13
2019-03-12T06:46:59.832Z,17.63
2019-03-12T06:49:43.006Z,8.03
2019-03-12T06:52:17.818Z,10.57
2019-03-12T06:54:52.923Z,13.53
2019-03-12T06:57:39.135Z,10.93
2019-03-12T07:00:22.668Z,12.63
2019-03-12T07:03:05.903Z,14.73
2019-03-12T07:05:53.620Z,15.30
2019-03-12T07:08:43.534Z,12.93
2019-03-12T07:11:30.654Z,11.03
2019-03-12T07:14:23.994Z,11.57
2019-03-12T07:17:17.138Z,13.70
2019-03-12T07:20:03.065Z,12.90
2019-03-12T07:22:50.192Z,13.67
2019-03-12T07:25:56.391Z,15.70
2019-03-12T07:28:30.334Z,13.07
2019-03-12T07:31:12.148Z,13.70
2019-03-12T07:33:58.037Z,15.30
2019-03-12T07:36:40.357Z,14.23
2019-03-12T07:39:27.800Z,12.37
2019-03-12T07:42:01.963Z,14.93
2019-03-12T07:44:50.083Z,14.90
2019-03-12T07:47:43.176Z,16.77
2019-03-12T07:50:29.115Z,9.37
2019-03-12T07:53:18.518Z,17.80
2019-03-12T07:56:04.417Z,12.00
2019-03-12T07:58:45.250Z,13.80
2019-03-12T08:01:32.222Z,9.93
2019-03-12T08:04:17.892Z,17.13
2019-03-12T08:07:13.339Z,11.80
2019-03-12T08:10:01.114Z,9.60
2019-03-12T08:12:48.531Z,12.10
2019-03-12T08:15:26.315Z,10.17
2019-03-12T08:18:06.196Z,11.33
2019-03-12T08:20:51.996Z,12.13
2019-03-12T08:23:28.569Z,12.70
2019-03-12T08:26:15.871Z,13.33
2019-03-12T08:28:57.166Z,10.10
2019-03-12T08:31:37.452Z,15.33
2019-03-12T08:34:30.345Z,12.10
2019-03-12T08:37:12.024Z,10.73
2019-03-12T08:40:02.284Z,11.13
2019-03-12T08:42:54.062Z,11.90
2019-03-12T08:45:31.254Z,7.83
2019-03-12T08:48:13.985Z,10.73
2019-03-12T08:50:59.995Z,10.53
2019-03-12T08:53:46.370Z,8.43
2019-03-12T08:56:33.551Z,11.40
2019-03-12T08:59:19.547Z,7.07
2019-03-12T09:02:05.240Z,8.27
2019-03-12T09:04:49.284Z,9.87
2019-03-12T09:07:39.379Z,8.20
2019-03-12T09:10:30.094Z,12.40
2019-03-12T09:13:26.249Z,11.73
2019-03-12T09:16:09.751Z,13.03
2019-03-12T09:18:54.097Z,9.37
2019-03-12T09:21:34.745Z,15.23
2019-03-12T09:24:30.699Z,14.03
2019-03-12T09:27:20.389Z,10.00
2019-03-12T09:29:57.659Z,8.97
2019-03-12T09:32:37.265Z,5.27
2019-03-12T09:35:36.900Z,12.17
2019-03-12T09:38:20.975Z,8.13
2019-03-12T09:41:10.910Z,10.83
2019-03-12T09:43:57.988Z,11.90
2019-03-12T09:46:48.121Z,11.17
2019-03-12T09:49:27.377Z,6.07
2019-03-12T09:52:13.298Z,7.37
2019-03-12T09:55:12.765Z,8.77
2019-03-12T09:57:58.734Z,7.07
2019-03-12T10:00:51.799Z,7.17
2019-03-12T10:03:37.258Z,9.43
2019-03-12T10:06:11.747Z,9.87
2019-03-12T10:09:01.135Z,7.77
2019-03-12T10:11:53.985Z,8.23
2019-03-12T10:14:46.200Z,6.83
2019-03-12T10:17:36.143Z,5.33
2019-03-12T10:20:27.226Z,7.27
2019-03-12T10:23:16.463Z,6.60
2019-03-12T10:26:02.125Z,11.40
2019-03-12T10:28:58.262Z,6.40
2019-03-12T10:31:45.348Z,7.47
2019-03-12T10:34:47.780Z,10.03
2019-03-12T10:37:44.030Z,8.23
2019-03-12T10:40:28.054Z,8.33
2019-03-12T10:43:10.663Z,4.53
2019-03-12T10:45:56.273Z,8.77
2019-03-12T10:48:24.212Z,9.13
2019-03-12T10:50:51.888Z,9.47
2019-03-12T10:53:19.962Z,8.53
2019-03-12T10:55:47.603Z,7.00
2019-03-12T10:58:15.237Z,8.73
2019-03-12T11:00:43.821Z,7.43
2019-03-12T11:03:11.422Z,9.77
2019-03-12T11:05:45.777Z,7.93
2019-03-12T11:08:08.433Z,7.10
2019-03-12T11:10:36.049Z,7.33
2019-03-12T11:13:03.753Z,5.63
2019-03-12T11:15:31.501Z,8.73
2019-03-12T11:18:00.692Z,7.40
2019-03-12T11:20:28.574Z,7.03
2019-03-12T11:22:56.161Z,7.70
2019-03-12T11:25:27.777Z,9.10
2019-03-12T11:27:53.166Z,8.07
2019-03-12T11:30:20.826Z,7.37
2019-03-12T11:32:48.505Z,8.40
2019-03-12T11:35:16.140Z,7.83
2019-03-12T11:37:43.789Z,6.37
2019-03-12T11:40:14.415Z,9.07
2019-03-12T11:42:42.047Z,9.67
2019-03-12T11:45:15.437Z,7.87
2019-03-12T11:47:39.149Z,10.67
2019-03-12T11:50:09.105Z,6.37
2019-03-12T11:52:36.729Z,11.77
2019-03-12T11:55:04.570Z,8.10
2019-03-12T11:57:32.153Z,8.17
2019-03-12T11:59:59.777Z,7.73
2019-03-12T12:02:27.369Z,9.93
2019-03-12T12:04:55.020Z,6.70
2019-03-12T12:07:22.629Z,9.53
2019-03-12T12:09:50.506Z,7.77
2019-03-12T12:12:18.238Z,7.30
2019-03-12T12:14:45.888Z,6.10
2019-03-12T12:17:13.491Z,8.63
2019-03-12T12:19:41.172Z,4.63
2019-03-12T12:22:08.715Z,4.07
2019-03-12T12:24:40.211Z,9.10
2019-03-12T12:27:07.831Z,8.37
2019-03-12T12:29:35.447Z,6.53
2019-03-12T12:32:03.049Z,8.20
2019-03-12T12:34:30.625Z,4.47
2019-03-12T12:36:58.277Z,8.03
2019-03-12T12:39:25.933Z,5.33
2019-03-12T12:41:53.547Z,5.93
2019-03-12T12:44:21.193Z,7.03
2019-03-12T12:46:48.852Z,7.03
2019-03-12T12:49:16.865Z,3.40
2019-03-12T12:51:44.490Z,5.93
2019-03-12T12:54:12.079Z,8.73
2019-03-12T12:56:39.694Z,5.60
2019-03-12T12:59:07.616Z,7.23
2019-03-12T13:01:35.415Z,7.13
2019-03-12T13:04:03.218Z,8.87
2019-03-12T13:06:31.030Z,6.67
2019-03-12T13:08:58.874Z,8.67
2019-03-12T13:11:26.881Z,5.30
2019-03-12T13:13:54.750Z,9.63
2019-03-12T13:16:25.487Z,4.00
2019-03-12T13:18:52.415Z,4.00
2019-03-12T13:21:20.316Z,5.47
2019-03-12T13:23:48.170Z,4.70
2019-03-12T13:26:16.079Z,4.80
2019-03-12T13:28:45.161Z,4.30
2019-03-12T13:31:12.836Z,5.53
2019-03-12T13:33:40.903Z,7.40
2019-03-12T13:36:13.654Z,4.17
2019-03-12T13:38:46.747Z,8.07
2019-03-12T13:41:11.145Z,5.60
2019-03-12T13:43:38.945Z,3.73
2019-03-12T13:46:06.851Z,5.57
2019-03-12T13:48:34.728Z,7.30
2019-03-12T13:51:06.424Z,8.47
2019-03-12T13:53:34.213Z,7.53
2019-03-12T13:56:02.147Z,6.60
2019-03-12T13:58:29.853Z,3.87
2019-03-12T14:00:57.472Z,4.00
2019-03-12T14:03:25.268Z,4.23
2019-03-12T14:05:52.917Z,5.23
2019-03-12T14:08:20.624Z,6.27
2019-03-12T14:10:48.257Z,5.30
2019-03-12T14:13:15.897Z,5.90
2019-03-12T14:15:43.533Z,4.03
2019-03-12T14:18:11.262Z,7.40
2019-03-12T14:20:41.120Z,5.57
2019-03-12T14:23:09.673Z,8.60
2019-03-12T14:25:37.459Z,4.27
2019-03-12T14:28:05.531Z,4.90
2019-03-12T14:30:33.345Z,6.47
2019-03-12T14:33:01.219Z,7.83
2019-03-12T14:35:28.983Z,7.43
2019-03-12T14:37:56.877Z,5.50
2019-03-12T14:40:24.724Z,7.87
2019-03-12T14:42:52.503Z,6.83
2019-03-12T14:45:25.247Z,9.67
2019-03-12T14:47:53.073Z,8.73
2019-03-12T14:50:20.710Z,10.07
2019-03-12T14:52:50.754Z,7.47
2019-03-12T14:55:18.325Z,7.30
2019-03-12T14:57:45.933Z,5.03
2019-03-12T15:00:19.253Z,5.80
2019-03-12T15:02:46.896Z,4.40
2019-03-12T15:05:14.495Z,5.97
2019-03-12T15:07:42.135Z,6.27
2019-03-12T15:10:10.410Z,5.13
2019-03-12T15:12:38.052Z,7.10
2019-03-12T15:15:05.857Z,6.23
2019-03-12T15:17:33.509Z,5.80
2019-03-12T15:20:01.105Z,6.00
2019-03-12T15:22:28.734Z,4.80
2019-03-12T15:24:56.383Z,3.97
2019-03-12T15:27:24.038Z,4.23
2019-03-12T15:29:51.671Z,5.10
2019-03-12T15:32:19.275Z,8.30
2019-03-12T15:34:46.908Z,3.10
2019-03-12T15:37:15.384Z,6.37
2019-03-12T15:39:43.136Z,7.40
2019-03-12T15:42:10.765Z,5.20
2019-03-12T15:44:38.400Z,5.43
2019-03-12T15:47:08.778Z,4.80
2019-03-12T15:49:42.548Z,5.07
2019-03-12T15:52:04.826Z,5.43
2019-03-12T15:54:32.456Z,4.77
2019-03-12T15:57:00.083Z,5.30
2019-03-12T15:59:27.757Z,4.40
2019-03-12T16:01:55.350Z,4.77
2019-03-12T16:04:22.979Z,4.23
2019-03-12T16:07:00.610Z,4.40
2019-03-12T16:09:20.075Z,6.00
2019-03-12T16:11:47.663Z,4.07
2019-03-12T16:14:15.291Z,4.67
2019-03-12T16:16:42.875Z,5.03
2019-03-12T16:19:10.552Z,5.07
2019-03-12T16:21:40.393Z,9.27
2019-03-12T16:24:07.586Z,2.77
2019-03-12T16:26:35.196Z,3.70
2019-03-12T16:29:02.798Z,4.43
2019-03-12T16:31:30.439Z,4.97
2019-03-12T16:33:58.046Z,4.70
2019-03-12T16:36:25.738Z,5.83
2019-03-12T16:38:53.355Z,4.83
2019-03-12T16:41:21.003Z,5.53
2019-03-12T16:43:48.589Z,4.17
2019-03-12T16:46:16.202Z,5.50
2019-03-12T16:48:43.818Z,3.93
2019-03-12T16:51:11.467Z,5.47
2019-03-12T16:53:39.068Z,4.17
2019-03-12T16:56:06.719Z,2.57
2019-03-12T16:58:34.335Z,4.37
2019-03-12T17:01:02.014Z,4.40
2019-03-12T17:03:29.610Z,4.33
2019-03-12T17:06:01.701Z,4.80
2019-03-12T17:08:29.371Z,5.23
2019-03-12T17:11:02.400Z,5.63
2019-03-12T17:13:26.558Z,4.73
2019-03-12T17:15:55.145Z,4.90
2019-03-12T17:18:22.925Z,2.90
2019-03-12T17:20:50.537Z,5.13
2019-03-12T17:23:18.152Z,5.63
2019-03-12T17:25:45.742Z,3.33
2019-03-12T17:28:13.342Z,4.63
2019-03-12T17:30:40.925Z,4.67
2019-03-12T17:33:08.595Z,4.10
2019-03-12T17:35:36.184Z,4.73
2019-03-12T17:38:03.831Z,4.80
2019-03-12T17:40:31.469Z,4.93
2019-03-12T17:43:00.685Z,6.00
2019-03-12T17:45:28.304Z,4.73
2019-03-12T17:47:55.996Z,3.30
2019-03-12T17:50:23.566Z,4.50
2019-03-12T17:52:51.512Z,6.30
2019-03-12T17:55:19.098Z,3.47
2019-03-12T17:57:46.717Z,9.47
2019-03-12T18:00:16.098Z,4.70
2019-03-12T18:02:43.711Z,2.50
2019-03-12T18:05:11.713Z,4.97
2019-03-12T18:07:39.516Z,4.33
2019-03-12T18:10:08.595Z,5.70
2019-03-12T18:12:36.237Z,5.30
2019-03-12T18:15:04.977Z,3.63
2019-03-12T18:17:32.630Z,4.17
2019-03-12T18:20:00.384Z,5.83
2019-03-12T18:22:28.332Z,7.17
2019-03-12T18:24:56.092Z,4.97
2019-03-12T18:27:23.752Z,4.00
2019-03-12T18:29:51.374Z,7.77
2019-03-12T18:32:18.985Z,6.97
2019-03-12T18:34:46.622Z,7.73
2019-03-12T18:37:14.319Z,6.20
2019-03-12T18:39:41.960Z,4.60
2019-03-12T18:42:09.614Z,5.20
2019-03-12T18:44:37.212Z,5.20
2019-03-12T18:47:04.855Z,6.03
2019-03-12T18:49:36.481Z,3.80
2019-03-12T18:52:04.106Z,6.10
2019-03-12T18:54:33.982Z,5.10
2019-03-12T18:57:01.557Z,4.50
2019-03-12T18:59:29.241Z,5.50
2019-03-12T19:01:56.810Z,2.90
2019-03-12T19:04:24.594Z,4.80
2019-03-12T19:06:52.183Z,4.63
2019-03-12T19:09:19.815Z,3.90
2019-03-12T19:11:48.674Z,5.27
2019-03-12T19:14:16.652Z,4.80
2019-03-12T19:16:44.316Z,6.70
2019-03-12T19:19:11.972Z,3.43
2019-03-12T19:21:39.560Z,6.53
2019-03-12T19:24:07.221Z,8.77
2019-03-12T19:26:35.106Z,6.93
2019-03-12T19:29:03.539Z,6.83
2019-03-12T19:31:56.459Z,3.63
2019-03-12T19:34:31.816Z,4.80
2019-03-12T19:37:00.293Z,3.80
2019-03-12T19:39:28.412Z,3.93
2019-03-12T19:41:55.998Z,4.20
2019-03-12T19:44:23.969Z,6.37
2019-03-12T19:46:51.627Z,6.50
2019-03-12T19:49:19.389Z,3.20
2019-03-12T19:51:46.995Z,7.07
2019-03-12T19:54:14.732Z,3.30
2019-03-12T19:56:42.314Z,5.47
2019-03-12T19:59:09.971Z,7.53
2019-03-12T20:01:38.853Z,4.87
2019-03-12T20:04:06.437Z,3.57
2019-03-12T20:06:34.172Z,4.37
2019-03-12T20:09:02.003Z,5.00
2019-03-12T20:11:54.679Z,7.43
2019-03-12T20:15:04.330Z,5.73
2019-03-12T20:17:59.562Z,4.67
2019-03-12T20:21:02.314Z,4.00
2019-03-12T20:24:08.854Z,5.27
2019-03-12T20:27:19.978Z,4.50
2019-03-12T20:30:26.672Z,3.20
2019-03-12T20:33:47.518Z,2.63
2019-03-12T20:36:55.574Z,4.20
2019-03-12T20:39:59.665Z,5.33
2019-03-12T20:43:04.838Z,4.00
2019-03-12T20:46:20.093Z,4.30
2019-03-12T20:49:14.053Z,3.23
2019-03-12T20:52:32.486Z,3.20
2019-03-12T20:55:36.968Z,5.23
2019-03-12T20:58:41.887Z,7.33
2019-03-12T21:01:48.963Z,5.27
2019-03-12T21:05:07.381Z,7.63
2019-03-12T21:08:23.458Z,6.67
2019-03-12T21:11:43.870Z,3.87
2019-03-12T21:14:55.541Z,1.30
2019-03-12T21:18:11.301Z,4.07
2019-03-12T21:21:34.886Z,2.67
2019-03-12T21:24:15.644Z,2.43
2019-03-12T21:27:27.077Z,2.03
2019-03-12T21:29:53.719Z,3.30
2019-03-12T21:32:21.274Z,4.37
2019-03-12T21:34:48.983Z,3.83
2019-03-12T21:37:16.732Z,4.43
2019-03-12T21:39:54.583Z,6.10
2019-03-12T21:42:13.836Z,5.80
2019-03-12T21:44:41.418Z,5.47
2019-03-12T21:47:09.169Z,6.07
2019-03-12T21:49:36.774Z,7.10
2019-03-12T21:52:04.938Z,7.60
2019-03-12T21:54:32.533Z,5.07
2019-03-12T21:57:00.184Z,5.17
2019-03-12T21:59:27.749Z,4.90
2019-03-12T22:01:55.379Z,4.37
2019-03-12T22:04:22.944Z,4.30
2019-03-12T22:06:50.562Z,4.70
2019-03-12T22:09:18.180Z,4.60
2019-03-12T22:11:45.832Z,5.93
2019-03-12T22:14:13.416Z,4.57
2019-03-12T22:16:41.144Z,4.60
2019-03-12T22:19:08.744Z,5.70
2019-03-12T22:22:11.149Z,5.27
2019-03-12T22:24:38.790Z,6.57
2019-03-12T22:27:06.405Z,4.63
2019-03-12T22:29:33.975Z,4.90
2019-03-12T22:32:01.591Z,5.70
2019-03-12T22:34:30.293Z,7.13
2019-03-12T22:36:58.099Z,4.67
2019-03-12T22:39:26.938Z,5.27
2019-03-12T22:41:54.598Z,6.53
2019-03-12T22:44:22.207Z,5.53
2019-03-12T22:46:49.825Z,7.50
2019-03-12T22:49:17.429Z,5.43
2019-03-12T22:51:45.032Z,5.90
2019-03-12T22:54:12.610Z,4.93
2019-03-12T22:56:40.322Z,5.80
2019-03-12T22:59:07.899Z,8.70
2019-03-12T23:01:35.478Z,5.47
2019-03-12T23:04:03.100Z,6.97
2019-03-12T23:06:30.674Z,6.73
2019-03-12T23:08:58.296Z,10.70
2019-03-12T23:11:26.088Z,7.00
2019-03-12T23:13:53.757Z,7.60
2019-03-12T23:16:21.347Z,8.40
2019-03-12T23:18:48.965Z,9.97
2019-03-12T23:21:16.577Z,8.80
2019-03-12T23:23:44.198Z,9.87
2019-03-12T23:26:11.828Z,8.43
2019-03-12T23:28:39.392Z,8.43
2019-03-12T23:31:06.979Z,10.60
2019-03-12T23:33:34.582Z,10.73
2019-03-12T23:36:02.226Z,11.87
2019-03-12T23:38:29.804Z,8.63
2019-03-12T23:40:58.962Z,10.47
2019-03-12T23:43:26.638Z,9.57
2019-03-12T23:45:54.260Z,8.97
2019-03-12T23:48:22.254Z,9.63
2019-03-12T23:50:49.858Z,9.37
2019-03-12T23:53:17.564Z,8.43
2019-03-12T23:55:45.113Z,9.00
2019-03-12T23:58:13.974Z,10.43
